Port Stanley, Washington
Current Conditions -  °F | °C
As of 4:53 PM on Friday 26 Dec 2014 (Local Time) from KFHR Reporting Station
Overcast Overcast  
Wind Chill: 42°   Ceiling: 2000
Heat Index: 42°   Visibility: 10mi
Dew Point: 38°   Wind: 0mph
Humidity: 85%   Direction: NA
Pressure: 30.37"   Gusts: NA
Location:  48.4848°N, 122.883°W
Report Text: KFHR 270053Z AUTO 00000KT 10SM BKN020 OVC038 06/03 A3037 RMK AO2 SLP284 T00560033
Loading
Personal Weather Stations






























Interactive Weather Map New forecast layout! Learn more

10-Day Weather Forecast

Advertisements
Track Severe Weather on mobile